Time;durP1;ratioP1;P1;durP2;ratioP2;P2;SDS_P1;SDS_P2;PMS_P1;PMS_P2;Temp;Humidity;BMP_temperature;BMP_pressure;BME280_temperature;BME280_humidity;BME280_pressure;Samples;Min_cycle;Max_cycle;Signal;HPM_P1;HPM_P2
2021/12/04 00:02:00;;;;;;;0.10;0.10;;;;;;;;;;5030763;28;20488;-71
2021/12/04 00:04:34;;;;;;;0.55;0.32;;;;;;;;;;5031687;28;20031;-71
2021/12/04 00:07:00;;;;;;;0.10;0.10;;;;;;;;;;5041763;28;20025;-70
2021/12/04 00:09:26;;;;;;;0.85;0.82;;;;;;;;;;5029733;28;20026;-70
2021/12/04 00:11:55;;;;;;;0.00;0.00;;;;;;;;;;5036213;28;20013;-70
2021/12/04 00:14:21;;;;;;;0.38;0.38;;;;;;;;;;5037630;28;20090;-71
2021/12/04 00:16:48;;;;;;;0.20;0.20;;;;;;;;;;5034190;28;20029;-70
2021/12/04 00:19:14;;;;;;;0.25;0.25;;;;;;;;;;5043156;28;20029;-71
2021/12/04 00:21:40;;;;;;;0.00;0.00;;;;;;;;;;5035937;28;20365;-71
2021/12/04 00:24:06;;;;;;;0.10;0.10;;;;;;;;;;5040866;28;20049;-71
2021/12/04 00:26:32;;;;;;;0.75;0.75;;;;;;;;;;5029412;28;20037;-71
2021/12/04 00:28:58;;;;;;;0.10;0.10;;;;;;;;;;5032860;28;20122;-71
2021/12/04 00:31:24;;;;;;;0.03;0.03;;;;;;;;;;5042966;28;20029;-70
2021/12/04 00:33:50;;;;;;;0.50;0.50;;;;;;;;;;5031299;28;20075;-71
2021/12/04 00:37:06;;;;;;;0.10;0.10;;;;;;;;;;5039843;28;20033;-70
2021/12/04 00:50:04;;;;;;;0.15;0.15;;;;;;;;;;5038254;28;20039;-71
2021/12/04 00:52:30;;;;;;;0.10;0.10;;;;;;;;;;5037667;28;20143;-71
2021/12/04 00:54:56;;;;;;;0.38;0.38;;;;;;;;;;5029469;28;20033;-71
2021/12/04 00:57:22;;;;;;;0.20;0.20;;;;;;;;;;5045461;28;20391;-71
2021/12/04 00:59:48;;;;;;;0.00;0.00;;;;;;;;;;5044315;28;20029;-70
2021/12/04 01:02:14;;;;;;;0.55;0.55;;;;;;;;;;5033800;28;20051;-71
2021/12/04 01:04:40;;;;;;;0.10;0.10;;;;;;;;;;5040800;28;20040;-71
2021/12/04 01:07:08;;;;;;;0.40;0.40;;;;;;;;;;5039984;28;20037;-70
2021/12/04 01:09:34;;;;;;;6.25;1.20;;;;;;;;;;5034922;28;20044;-71
2021/12/04 01:12:00;;;;;;;0.00;0.00;;;;;;;;;;5032438;28;20476;-71
2021/12/04 01:14:27;;;;;;;0.10;0.10;;;;;;;;;;5035537;28;20056;-71
2021/12/04 01:16:53;;;;;;;0.28;0.28;;;;;;;;;;5034924;28;20033;-71
2021/12/04 01:19:19;;;;;;;0.40;0.40;;;;;;;;;;5044166;28;20029;-70
2021/12/04 01:21:46;;;;;;;0.43;0.43;;;;;;;;;;5035820;28;20033;-71
2021/12/04 01:24:12;;;;;;;0.35;0.35;;;;;;;;;;5028924;28;20069;-70
2021/12/04 01:26:39;;;;;;;0.13;0.13;;;;;;;;;;5046170;28;20130;-71
2021/12/04 01:29:05;;;;;;;6.32;2.08;;;;;;;;;;5045047;28;20054;-70
2021/12/04 01:31:30;;;;;;;0.10;0.10;;;;;;;;;;5034998;28;20462;-70
2021/12/04 01:33:56;;;;;;;0.10;0.10;;;;;;;;;;5033189;28;20017;-71
2021/12/04 01:36:23;;;;;;;0.40;0.40;;;;;;;;;;5035845;28;20416;-71
2021/12/04 01:38:49;;;;;;;0.82;0.60;;;;;;;;;;5042617;28;20528;-71
2021/12/04 01:41:15;;;;;;;0.10;0.10;;;;;;;;;;5046951;28;20498;-71
2021/12/04 01:43:41;;;;;;;14.13;3.33;;;;;;;;;;5040587;28;20043;-70
2021/12/04 01:46:07;;;;;;;0.17;0.17;;;;;;;;;;5041488;28;20044;-71
2021/12/04 01:48:33;;;;;;;0.35;0.35;;;;;;;;;;5033802;28;20036;-70
2021/12/04 01:50:59;;;;;;;0.85;0.40;;;;;;;;;;5031920;28;20024;-71
2021/12/04 01:53:26;;;;;;;2.25;1.15;;;;;;;;;;5037906;28;20117;-70
2021/12/04 01:55:52;;;;;;;0.20;0.20;;;;;;;;;;5039080;28;20025;-70
2021/12/04 01:58:19;;;;;;;0.08;0.08;;;;;;;;;;5046296;28;20458;-70
2021/12/04 02:00:44;;;;;;;2.75;0.73;;;;;;;;;;5036682;28;20037;-70
2021/12/04 02:03:13;;;;;;;3.40;2.17;;;;;;;;;;5033853;28;21714;-71
2021/12/04 02:05:39;;;;;;;0.30;0.30;;;;;;;;;;5033260;28;20072;-71
2021/12/04 02:08:09;;;;;;;1.38;1.27;;;;;;;;;;5036669;28;20052;-71
2021/12/04 02:10:36;;;;;;;0.57;0.57;;;;;;;;;;5039608;28;20500;-71
2021/12/04 02:13:02;;;;;;;0.10;0.10;;;;;;;;;;5040994;28;20043;-71
2021/12/04 02:15:28;;;;;;;0.10;0.10;;;;;;;;;;5036187;28;20064;-71
2021/12/04 02:17:54;;;;;;;0.47;0.43;;;;;;;;;;5034630;28;20025;-71
2021/12/04 02:20:22;;;;;;;0.10;0.10;;;;;;;;;;5035638;28;21838;-71
2021/12/04 02:22:48;;;;;;;0.47;0.47;;;;;;;;;;5052140;28;20061;-71
2021/12/04 02:25:15;;;;;;;0.10;0.10;;;;;;;;;;5045146;28;20075;-71
2021/12/04 02:27:41;;;;;;;0.20;0.20;;;;;;;;;;5051846;28;20028;-71
2021/12/04 02:30:08;;;;;;;0.10;0.10;;;;;;;;;;5047513;28;20021;-71
2021/12/04 02:32:34;;;;;;;0.20;0.20;;;;;;;;;;5036498;28;20025;-71
2021/12/04 02:35:00;;;;;;;0.47;0.47;;;;;;;;;;5031844;28;20040;-71
2021/12/04 02:37:26;;;;;;;0.20;0.20;;;;;;;;;;5039476;28;20086;-71
2021/12/04 02:39:58;;;;;;;0.20;0.20;;;;;;;;;;5034782;28;20030;-71
2021/12/04 02:42:25;;;;;;;0.00;0.00;;;;;;;;;;5035193;28;20029;-70
2021/12/04 02:44:51;;;;;;;1.73;1.08;;;;;;;;;;5035872;28;20168;-71
2021/12/04 02:47:17;;;;;;;0.40;0.40;;;;;;;;;;5043685;28;20018;-71
2021/12/04 02:49:43;;;;;;;0.20;0.20;;;;;;;;;;5034946;28;20025;-71
2021/12/04 02:52:11;;;;;;;0.13;0.13;;;;;;;;;;5042017;28;20039;-71
2021/12/04 02:54:37;;;;;;;0.10;0.10;;;;;;;;;;5050203;28;20037;-71
2021/12/04 02:57:07;;;;;;;0.10;0.10;;;;;;;;;;5033980;28;20530;-71
2021/12/04 02:59:34;;;;;;;0.93;0.88;;;;;;;;;;5047695;28;20032;-71
2021/12/04 03:02:00;;;;;;;1.33;0.60;;;;;;;;;;5041774;28;20035;-71
2021/12/04 03:04:27;;;;;;;0.10;0.10;;;;;;;;;;5049177;28;20116;-71
2021/12/04 03:06:54;;;;;;;0.75;0.65;;;;;;;;;;5038273;28;20522;-71
2021/12/04 03:09:20;;;;;;;0.17;0.17;;;;;;;;;;5032214;28;20053;-71
2021/12/04 03:11:47;;;;;;;0.28;0.28;;;;;;;;;;5039773;28;20025;-71
2021/12/04 03:14:13;;;;;;;0.25;0.25;;;;;;;;;;5036696;28;20091;-71
2021/12/04 03:16:40;;;;;;;0.10;0.10;;;;;;;;;;5048202;28;20100;-71
2021/12/04 03:19:06;;;;;;;0.20;0.20;;;;;;;;;;5041902;28;20029;-71
2021/12/04 03:21:34;;;;;;;0.40;0.40;;;;;;;;;;5042704;28;20040;-71
2021/12/04 03:24:03;;;;;;;0.30;0.30;;;;;;;;;;5049307;28;20521;-71
2021/12/04 03:26:29;;;;;;;0.13;0.13;;;;;;;;;;5032013;28;20527;-70
2021/12/04 03:28:57;;;;;;;0.10;0.10;;;;;;;;;;5041514;28;20055;-71
2021/12/04 03:31:41;;;;;;;0.50;0.50;;;;;;;;;;5035888;28;20052;-71
2021/12/04 03:42:22;;;;;;;0.20;0.20;;;;;;;;;;5035769;28;20060;-71
2021/12/04 03:44:49;;;;;;;0.43;0.43;;;;;;;;;;5047998;28;20538;-71
2021/12/04 03:47:15;;;;;;;0.35;0.20;;;;;;;;;;5046804;28;20029;-71
2021/12/04 03:49:41;;;;;;;1.05;0.95;;;;;;;;;;5045697;28;20025;-70
2021/12/04 03:52:07;;;;;;;0.17;0.17;;;;;;;;;;5046712;28;20025;-71
2021/12/04 03:54:34;;;;;;;0.70;0.68;;;;;;;;;;5049494;28;20112;-71
2021/12/04 03:57:03;;;;;;;0.10;0.10;;;;;;;;;;5030672;28;20484;-71
2021/12/04 03:59:30;;;;;;;0.13;0.05;;;;;;;;;;5033078;28;20468;-71
2021/12/04 04:01:56;;;;;;;0.10;0.10;;;;;;;;;;5033529;28;20476;-71
2021/12/04 04:04:22;;;;;;;0.45;0.45;;;;;;;;;;5048921;28;20032;-71
2021/12/04 04:06:47;;;;;;;0.10;0.10;;;;;;;;;;5035011;28;20369;-71
2021/12/04 04:09:14;;;;;;;0.10;0.10;;;;;;;;;;5034687;28;20027;-71
2021/12/04 04:11:39;;;;;;;0.28;0.28;;;;;;;;;;5046303;28;20545;-71
2021/12/04 04:14:05;;;;;;;0.10;0.10;;;;;;;;;;5033916;28;20029;-71
2021/12/04 04:16:35;;;;;;;0.60;0.60;;;;;;;;;;5030350;28;20021;-71
2021/12/04 04:19:01;;;;;;;0.28;0.28;;;;;;;;;;5039915;28;20567;-71
2021/12/04 04:21:27;;;;;;;2.00;0.98;;;;;;;;;;5051471;28;20132;-71
2021/12/04 04:23:53;;;;;;;0.40;0.40;;;;;;;;;;5047318;28;20102;-71
2021/12/04 04:26:19;;;;;;;0.15;0.15;;;;;;;;;;5042770;28;20438;-71
2021/12/04 04:28:45;;;;;;;0.10;0.10;;;;;;;;;;5047697;28;20040;-71
2021/12/04 04:31:11;;;;;;;0.28;0.28;;;;;;;;;;5041561;28;20144;-71
2021/12/04 04:33:41;;;;;;;0.43;0.43;;;;;;;;;;5034918;28;20053;-71
2021/12/04 04:58:19;;;;;;;0.90;0.65;;;;;;;;;;5042202;28;20082;-71
2021/12/04 05:11:56;;;;;;;0.63;0.60;;;;;;;;;;5028990;28;20036;-71
2021/12/04 05:14:22;;;;;;;0.20;0.20;;;;;;;;;;5043701;28;20026;-71
2021/12/04 05:16:52;;;;;;;0.88;0.75;;;;;;;;;;5048342;28;20021;-71
2021/12/04 05:19:37;;;;;;;2.13;0.52;;;;;;;;;;5041184;28;20029;-71
2021/12/04 05:22:03;;;;;;;0.22;0.22;;;;;;;;;;5040054;28;20033;-71
2021/12/04 05:24:29;;;;;;;1.38;1.30;;;;;;;;;;5043152;28;20696;-71
2021/12/04 05:26:54;;;;;;;0.70;0.70;;;;;;;;;;5038421;28;20034;-71
2021/12/04 05:29:20;;;;;;;0.03;0.03;;;;;;;;;;5038289;28;20029;-71
2021/12/04 05:31:46;;;;;;;0.10;0.10;;;;;;;;;;5031630;28;20117;-70
2021/12/04 05:34:12;;;;;;;1.27;0.75;;;;;;;;;;5041483;28;20030;-71
2021/12/04 05:36:38;;;;;;;0.40;0.40;;;;;;;;;;5036368;28;20057;-71
2021/12/04 05:39:04;;;;;;;0.45;0.35;;;;;;;;;;5039110;28;20079;-71
2021/12/04 05:41:30;;;;;;;1.27;0.60;;;;;;;;;;5042107;28;20528;-71
2021/12/04 05:43:58;;;;;;;0.70;0.50;;;;;;;;;;5036445;28;20136;-71
2021/12/04 05:46:28;;;;;;;0.40;0.30;;;;;;;;;;5037793;28;20033;-71
2021/12/04 05:51:34;;;;;;;0.20;0.20;;;;;;;;;;5035110;28;20022;-71
2021/12/04 05:54:03;;;;;;;0.75;0.28;;;;;;;;;;5039721;28;20030;-71
2021/12/04 05:56:31;;;;;;;0.10;0.10;;;;;;;;;;5035585;28;20033;-70
2021/12/04 05:58:57;;;;;;;2.92;2.47;;;;;;;;;;5036457;28;20056;-71
2021/12/04 06:01:23;;;;;;;0.47;0.47;;;;;;;;;;5043531;28;20033;-71
2021/12/04 06:03:49;;;;;;;0.63;0.40;;;;;;;;;;5043916;28;20057;-71
2021/12/04 06:06:16;;;;;;;0.63;0.63;;;;;;;;;;5041992;28;20033;-71
2021/12/04 06:08:42;;;;;;;2.05;1.65;;;;;;;;;;5033714;28;20687;-71
2021/12/04 06:11:08;;;;;;;0.10;0.10;;;;;;;;;;5032164;28;20071;-71
2021/12/04 06:13:34;;;;;;;0.17;0.15;;;;;;;;;;5034408;28;20029;-70
2021/12/04 06:16:00;;;;;;;1.00;0.55;;;;;;;;;;5036984;28;20613;-71
2021/12/04 06:18:26;;;;;;;1.45;0.65;;;;;;;;;;5050046;28;20064;-71
2021/12/04 06:23:37;;;;;;;0.15;0.15;;;;;;;;;;5034772;28;20076;-70
2021/12/04 06:26:05;;;;;;;0.30;0.30;;;;;;;;;;5042866;28;20033;-71
2021/12/04 06:28:32;;;;;;;1.13;0.32;;;;;;;;;;5045906;28;20491;-71
2021/12/04 06:30:59;;;;;;;0.15;0.15;;;;;;;;;;5038224;28;20060;-71
2021/12/04 06:33:26;;;;;;;0.50;0.50;;;;;;;;;;5044668;28;20029;-71
2021/12/04 06:35:52;;;;;;;0.52;0.52;;;;;;;;;;5055115;28;20060;-71
2021/12/04 06:38:18;;;;;;;0.50;0.50;;;;;;;;;;5039634;28;20025;-71
2021/12/04 06:40:45;;;;;;;0.47;0.47;;;;;;;;;;5035362;28;21898;-70
2021/12/04 06:43:11;;;;;;;0.35;0.35;;;;;;;;;;5048738;28;20021;-71
2021/12/04 06:45:39;;;;;;;0.25;0.25;;;;;;;;;;5045650;28;20037;-71
2021/12/04 06:48:08;;;;;;;0.10;0.10;;;;;;;;;;5043156;28;20030;-70
2021/12/04 06:50:42;;;;;;;0.10;0.10;;;;;;;;;;5032375;28;20048;-70
2021/12/04 06:53:56;;;;;;;0.20;0.20;;;;;;;;;;5037367;28;20053;-71
2021/12/04 06:56:00;;;;;;;0.20;0.20;;;;;;;;;;5046085;28;20037;-71
2021/12/04 06:58:27;;;;;;;0.10;0.10;;;;;;;;;;5035228;28;20021;-70
2021/12/04 07:00:54;;;;;;;0.80;0.55;;;;;;;;;;5031240;28;20136;-71
2021/12/04 07:03:20;;;;;;;0.28;0.28;;;;;;;;;;5041304;28;20464;-71
2021/12/04 07:05:47;;;;;;;0.50;0.50;;;;;;;;;;5039228;28;20067;-71
2021/12/04 07:08:13;;;;;;;2.08;0.90;;;;;;;;;;5044321;28;20025;-70
2021/12/04 07:10:39;;;;;;;0.30;0.30;;;;;;;;;;5037354;28;20033;-71
2021/12/04 07:13:05;;;;;;;0.10;0.10;;;;;;;;;;5042045;28;20036;-71
2021/12/04 07:15:32;;;;;;;0.68;0.68;;;;;;;;;;5047572;28;20021;-71
2021/12/04 07:17:59;;;;;;;5.38;1.00;;;;;;;;;;5045394;28;20039;-70
2021/12/04 07:20:25;;;;;;;0.98;0.43;;;;;;;;;;5037749;28;20406;-71
2021/12/04 07:22:51;;;;;;;0.30;0.30;;;;;;;;;;5033510;28;20072;-71
2021/12/04 07:25:17;;;;;;;0.73;0.73;;;;;;;;;;5036686;28;20082;-71
2021/12/04 07:27:43;;;;;;;0.77;0.77;;;;;;;;;;5042940;28;20665;-69
2021/12/04 07:30:10;;;;;;;0.43;0.43;;;;;;;;;;5043602;28;20025;-72
2021/12/04 07:32:37;;;;;;;0.80;0.50;;;;;;;;;;5031316;28;20082;-72
2021/12/04 07:35:04;;;;;;;0.75;0.75;;;;;;;;;;5033426;28;20036;-72
2021/12/04 07:37:30;;;;;;;3.92;0.80;;;;;;;;;;5048325;28;20029;-72
2021/12/04 07:39:56;;;;;;;0.50;0.50;;;;;;;;;;5042819;28;20490;-72
2021/12/04 07:42:21;;;;;;;0.10;0.10;;;;;;;;;;5037106;28;20026;-73
2021/12/04 07:44:48;;;;;;;0.30;0.30;;;;;;;;;;5051676;28;20029;-73
2021/12/04 07:47:14;;;;;;;0.85;0.60;;;;;;;;;;5028491;28;20025;-72
2021/12/04 07:49:40;;;;;;;0.98;0.68;;;;;;;;;;5042943;28;20498;-72
2021/12/04 07:52:07;;;;;;;0.40;0.40;;;;;;;;;;5038145;28;20025;-72
2021/12/04 07:54:33;;;;;;;0.20;0.20;;;;;;;;;;5049705;28;20030;-73
2021/12/04 07:56:59;;;;;;;0.40;0.40;;;;;;;;;;5046282;28;20039;-71
2021/12/04 07:59:26;;;;;;;0.45;0.45;;;;;;;;;;5031042;28;20034;-71
2021/12/04 08:01:52;;;;;;;1.55;0.65;;;;;;;;;;5036475;28;20182;-72
2021/12/04 08:04:19;;;;;;;0.95;0.93;;;;;;;;;;5039479;28;20029;-71
2021/12/04 08:06:45;;;;;;;0.70;0.47;;;;;;;;;;5042168;28;20033;-73
2021/12/04 08:09:11;;;;;;;0.55;0.55;;;;;;;;;;5035654;28;20511;-72
2021/12/04 08:11:37;;;;;;;0.63;0.63;;;;;;;;;;5035683;28;20033;-72
2021/12/04 08:14:03;;;;;;;0.80;0.80;;;;;;;;;;5036393;28;20537;-71
2021/12/04 08:16:32;;;;;;;0.75;0.43;;;;;;;;;;5033951;28;20036;-71
2021/12/04 08:18:58;;;;;;;1.17;0.70;;;;;;;;;;5034828;28;20029;-72
2021/12/04 08:21:24;;;;;;;2.58;1.05;;;;;;;;;;5031112;28;20112;-72
2021/12/04 08:23:50;;;;;;;0.25;0.25;;;;;;;;;;5029483;28;20580;-72
2021/12/04 08:26:16;;;;;;;0.15;0.15;;;;;;;;;;5033554;28;20115;-72
2021/12/04 08:28:42;;;;;;;0.25;0.25;;;;;;;;;;5046825;28;20440;-72
2021/12/04 08:31:08;;;;;;;0.55;0.55;;;;;;;;;;5048103;28;20051;-72
2021/12/04 08:33:34;;;;;;;0.43;0.43;;;;;;;;;;5045072;28;20090;-73
2021/12/04 08:36:03;;;;;;;0.50;0.50;;;;;;;;;;5043045;28;20037;-71
2021/12/04 08:38:29;;;;;;;0.40;0.20;;;;;;;;;;5029309;28;20056;-73
2021/12/04 08:40:55;;;;;;;0.55;0.40;;;;;;;;;;5033144;28;20053;-73
2021/12/04 08:43:21;;;;;;;0.73;0.73;;;;;;;;;;5042684;28;20140;-73
2021/12/04 08:45:47;;;;;;;0.35;0.35;;;;;;;;;;5041045;28;20079;-73
2021/12/04 08:48:13;;;;;;;0.00;0.00;;;;;;;;;;5040143;28;20021;-75
2021/12/04 08:50:43;;;;;;;0.52;0.38;;;;;;;;;;5043635;28;20100;-75
2021/12/04 08:53:09;;;;;;;0.85;0.60;;;;;;;;;;5043681;28;20063;-72
2021/12/04 08:55:37;;;;;;;8.25;1.05;;;;;;;;;;5033825;28;20025;-73
2021/12/04 08:58:04;;;;;;;0.38;0.38;;;;;;;;;;5039761;28;20032;-74
2021/12/04 09:00:34;;;;;;;1.95;0.63;;;;;;;;;;5041411;28;20155;-74
2021/12/04 09:03:00;;;;;;;0.93;0.80;;;;;;;;;;5043052;28;20021;-75
2021/12/04 09:05:26;;;;;;;1.50;1.25;;;;;;;;;;5029316;28;21372;-74
2021/12/04 09:07:53;;;;;;;0.28;0.28;;;;;;;;;;5039404;28;20040;-74
2021/12/04 09:10:19;;;;;;;0.45;0.45;;;;;;;;;;5035903;28;20079;-74
2021/12/04 09:12:45;;;;;;;0.40;0.38;;;;;;;;;;5031235;28;20094;-74
2021/12/04 09:15:13;;;;;;;0.50;0.50;;;;;;;;;;5039240;28;20491;-73
2021/12/04 09:17:38;;;;;;;1.02;1.02;;;;;;;;;;5040837;28;20051;-74
2021/12/04 09:20:05;;;;;;;0.10;0.10;;;;;;;;;;5042158;28;20436;-74
2021/12/04 09:22:34;;;;;;;0.88;0.57;;;;;;;;;;5026765;28;20478;-74
2021/12/04 09:25:02;;;;;;;0.45;0.30;;;;;;;;;;5034768;28;20029;-74
2021/12/04 09:27:39;;;;;;;0.68;0.68;;;;;;;;;;5045317;28;20688;-74
2021/12/04 09:36:18;;;;;;;0.40;0.40;;;;;;;;;;5040829;28;20078;-75
2021/12/04 10:06:12;;;;;;;0.47;0.47;;;;;;;;;;5038985;28;20506;-74
2021/12/04 10:11:49;;;;;;;1.90;1.27;;;;;;;;;;5033265;28;20036;-74
2021/12/04 10:14:39;;;;;;;0.63;0.63;;;;;;;;;;5060075;28;20071;-73
2021/12/04 10:17:13;;;;;;;0.22;0.22;;;;;;;;;;5032685;28;20678;-73
2021/12/04 10:19:53;;;;;;;0.57;0.57;;;;;;;;;;5032321;28;20400;-73
2021/12/04 10:22:35;;;;;;;0.20;0.20;;;;;;;;;;5034128;28;20033;-73
2021/12/04 10:33:56;;;;;;;0.10;0.10;;;;;;;;;;5034518;28;20051;-73
2021/12/04 10:36:26;;;;;;;0.10;0.10;;;;;;;;;;5034542;28;20032;-75
2021/12/04 10:38:52;;;;;;;0.30;0.30;;;;;;;;;;5038340;28;20025;-73
2021/12/04 10:41:27;;;;;;;0.20;0.20;;;;;;;;;;5032659;28;20075;-75
2021/12/04 10:43:53;;;;;;;0.57;0.57;;;;;;;;;;5031514;28;20029;-76
2021/12/04 10:46:21;;;;;;;0.77;0.75;;;;;;;;;;5032388;28;20036;-75
2021/12/04 10:48:57;;;;;;;0.20;0.20;;;;;;;;;;5035107;28;20045;-75
2021/12/04 10:51:29;;;;;;;1.83;0.60;;;;;;;;;;5042978;28;20079;-74
2021/12/04 10:53:57;;;;;;;0.10;0.10;;;;;;;;;;5036647;28;20427;-74
2021/12/04 10:56:58;;;;;;;0.10;0.10;;;;;;;;;;5048385;28;20033;-74
2021/12/04 10:59:31;;;;;;;0.10;0.10;;;;;;;;;;5041320;28;20057;-74
2021/12/04 11:02:20;;;;;;;0.95;0.90;;;;;;;;;;5031562;28;20038;-74
2021/12/04 11:04:53;;;;;;;0.82;0.82;;;;;;;;;;5037565;28;20025;-72
2021/12/04 11:24:00;;;;;;;0.17;0.17;;;;;;;;;;5038887;28;20056;-74
2021/12/04 11:26:43;;;;;;;0.20;0.20;;;;;;;;;;5038855;28;20053;-72
2021/12/04 11:35:14;;;;;;;0.38;0.38;;;;;;;;;;5035802;28;20053;-70
2021/12/04 11:42:55;;;;;;;1.95;1.80;;;;;;;;;;5038292;28;20037;-71
2021/12/04 11:45:29;;;;;;;0.55;0.55;;;;;;;;;;5034240;28;20025;-71
2021/12/04 11:47:56;;;;;;;0.30;0.30;;;;;;;;;;5039686;28;20560;-73
2021/12/04 11:50:27;;;;;;;0.70;0.70;;;;;;;;;;5035876;28;20029;-71
2021/12/04 11:52:54;;;;;;;0.10;0.10;;;;;;;;;;5041993;28;20051;-73
2021/12/04 11:55:21;;;;;;;0.50;0.50;;;;;;;;;;5041557;28;20053;-72
2021/12/04 11:57:48;;;;;;;0.28;0.28;;;;;;;;;;5036432;28;20551;-73
2021/12/04 12:00:24;;;;;;;0.60;0.60;;;;;;;;;;5037630;28;20036;-73
2021/12/04 12:02:52;;;;;;;0.85;0.85;;;;;;;;;;5035069;28;20044;-72
2021/12/04 12:05:19;;;;;;;5.70;1.35;;;;;;;;;;5039748;28;20120;-71
2021/12/04 12:07:54;;;;;;;0.20;0.20;;;;;;;;;;5034378;28;20076;-72
2021/12/04 12:10:20;;;;;;;1.00;1.00;;;;;;;;;;5037702;28;20476;-73
2021/12/04 12:12:48;;;;;;;0.13;0.13;;;;;;;;;;5035768;28;20533;-72
2021/12/04 12:15:18;;;;;;;2.00;1.65;;;;;;;;;;5038543;28;20025;-79
2021/12/04 12:17:44;;;;;;;0.28;0.28;;;;;;;;;;5033617;28;20057;-73
2021/12/04 12:20:17;;;;;;;1.55;0.82;;;;;;;;;;5037244;28;21957;-73
2021/12/04 12:22:51;;;;;;;0.30;0.30;;;;;;;;;;5033090;28;20144;-71
2021/12/04 12:25:35;;;;;;;3.85;0.85;;;;;;;;;;5031794;28;20509;-73
2021/12/04 12:34:01;;;;;;;0.80;0.80;;;;;;;;;;5034842;28;20039;-74
2021/12/04 12:36:29;;;;;;;0.40;0.40;;;;;;;;;;5030250;28;20404;-73
2021/12/04 12:38:56;;;;;;;0.57;0.57;;;;;;;;;;5034775;28;20044;-74
2021/12/04 12:41:37;;;;;;;1.75;1.05;;;;;;;;;;5034595;28;20032;-74
2021/12/04 12:44:26;;;;;;;0.93;0.93;;;;;;;;;;5028909;28;20186;-74
2021/12/04 12:46:57;;;;;;;0.80;0.80;;;;;;;;;;5030078;28;20033;-72
2021/12/04 12:49:29;;;;;;;0.90;0.85;;;;;;;;;;5038289;28;20018;-71
2021/12/04 12:52:00;;;;;;;0.38;0.28;;;;;;;;;;5037649;28;20033;-71
2021/12/04 12:54:26;;;;;;;;;;;;;;;;;;5036373;28;20021;-72
2021/12/04 12:56:58;;;;;;;0.65;0.65;;;;;;;;;;5028805;28;20004;-72
2021/12/04 12:59:37;;;;;;;1.95;0.63;;;;;;;;;;5030404;28;20025;-71
2021/12/04 13:13:43;;;;;;;0.75;0.75;;;;;;;;;;5034563;28;20514;-73
2021/12/04 13:16:17;;;;;;;0.70;0.70;;;;;;;;;;5035044;28;20048;-69
2021/12/04 13:18:45;;;;;;;0.32;0.17;;;;;;;;;;5037439;28;20131;-71
2021/12/04 13:21:11;;;;;;;0.20;0.20;;;;;;;;;;5043030;28;20064;-70
2021/12/04 13:23:38;;;;;;;0.77;0.73;;;;;;;;;;5036709;28;20049;-70
2021/12/04 13:26:09;;;;;;;0.30;0.30;;;;;;;;;;5030327;28;20029;-70
2021/12/04 13:28:36;;;;;;;0.80;0.80;;;;;;;;;;5029522;28;20029;-70
2021/12/04 13:31:02;;;;;;;0.30;0.30;;;;;;;;;;5045609;28;20085;-70
2021/12/04 13:33:32;;;;;;;1.02;0.30;;;;;;;;;;5044617;28;20036;-70
2021/12/04 13:35:58;;;;;;;2.60;0.98;;;;;;;;;;5031195;28;20231;-70
2021/12/04 13:38:25;;;;;;;1.20;0.95;;;;;;;;;;5028952;28;20049;-71
2021/12/04 13:40:52;;;;;;;1.55;0.90;;;;;;;;;;5029922;28;20033;-71
2021/12/04 13:43:19;;;;;;;0.20;0.20;;;;;;;;;;5031172;28;20033;-70
2021/12/04 13:45:45;;;;;;;1.88;0.95;;;;;;;;;;5047110;28;20111;-70
2021/12/04 13:48:12;;;;;;;0.50;0.50;;;;;;;;;;5048850;28;20060;-70
2021/12/04 13:53:13;;;;;;;1.35;1.15;;;;;;;;;;5045558;28;20037;-71
2021/12/04 13:55:41;;;;;;;4.47;1.65;;;;;;;;;;5036077;28;20128;-71
2021/12/04 13:58:07;;;;;;;0.40;0.40;;;;;;;;;;5049551;28;20033;-71
2021/12/04 14:00:33;;;;;;;0.30;0.30;;;;;;;;;;5040894;28;20083;-71
2021/12/04 14:02:59;;;;;;;0.25;0.25;;;;;;;;;;5043990;28;20033;-71
2021/12/04 14:05:26;;;;;;;1.98;1.20;;;;;;;;;;5050143;28;20102;-71
2021/12/04 14:07:54;;;;;;;0.20;0.20;;;;;;;;;;5042113;28;20030;-70
2021/12/04 14:10:22;;;;;;;0.35;0.35;;;;;;;;;;5035387;28;20057;-72
2021/12/04 14:12:48;;;;;;;0.20;0.20;;;;;;;;;;5039447;28;20116;-74
2021/12/04 14:15:16;;;;;;;0.52;0.52;;;;;;;;;;5044748;28;20037;-74
2021/12/04 14:17:42;;;;;;;0.52;0.52;;;;;;;;;;5040578;28;20099;-74
2021/12/04 14:20:09;;;;;;;1.15;0.88;;;;;;;;;;5034127;28;20462;-76
2021/12/04 14:22:44;;;;;;;0.10;0.10;;;;;;;;;;5035151;28;20046;-73
2021/12/04 14:25:11;;;;;;;0.73;0.73;;;;;;;;;;5036420;28;20029;-72
2021/12/04 14:27:38;;;;;;;0.10;0.10;;;;;;;;;;5039448;28;20052;-72
2021/12/04 14:30:07;;;;;;;0.25;0.25;;;;;;;;;;5043721;28;20691;-71
2021/12/04 14:32:35;;;;;;;0.40;0.40;;;;;;;;;;5048326;28;20118;-74
2021/12/04 14:35:02;;;;;;;0.40;0.38;;;;;;;;;;5048105;28;20082;-72
2021/12/04 14:37:32;;;;;;;0.55;0.55;;;;;;;;;;5044136;28;20036;-72
2021/12/04 14:39:58;;;;;;;0.80;0.15;;;;;;;;;;5040850;28;21519;-71
2021/12/04 14:42:26;;;;;;;0.10;0.10;;;;;;;;;;5042948;28;20036;-72
2021/12/04 14:44:53;;;;;;;0.22;0.22;;;;;;;;;;5042635;28;20403;-74
2021/12/04 14:47:20;;;;;;;6.40;1.00;;;;;;;;;;5038787;28;20361;-71
2021/12/04 14:49:46;;;;;;;0.73;0.68;;;;;;;;;;5032889;28;20060;-70
2021/12/04 14:52:20;;;;;;;2.83;1.58;;;;;;;;;;5042864;28;20056;-71
2021/12/04 14:54:46;;;;;;;0.47;0.47;;;;;;;;;;5035733;28;20037;-71
2021/12/04 14:57:16;;;;;;;1.00;1.00;;;;;;;;;;5038772;28;20112;-70
2021/12/04 14:59:42;;;;;;;0.13;0.13;;;;;;;;;;5032318;28;20136;-70
2021/12/04 15:02:15;;;;;;;0.20;0.20;;;;;;;;;;5031697;28;20117;-69
2021/12/04 15:04:41;;;;;;;0.73;0.65;;;;;;;;;;5032058;28;20045;-72
2021/12/04 15:07:17;;;;;;;0.47;0.47;;;;;;;;;;5030992;28;20030;-70
2021/12/04 15:09:43;;;;;;;0.20;0.20;;;;;;;;;;5031837;28;20030;-70
2021/12/04 15:12:08;;;;;;;0.50;0.47;;;;;;;;;;5033895;28;20617;-70
2021/12/04 15:14:34;;;;;;;0.25;0.25;;;;;;;;;;5032547;28;20040;-70
2021/12/04 15:17:07;;;;;;;0.45;0.45;;;;;;;;;;5032821;28;20033;-70
2021/12/04 15:19:40;;;;;;;1.42;1.33;;;;;;;;;;5042004;28;20478;-70
2021/12/04 15:22:09;;;;;;;1.02;1.00;;;;;;;;;;5045106;28;20143;-69
2021/12/04 15:24:38;;;;;;;0.52;0.50;;;;;;;;;;5034518;28;20389;-70
2021/12/04 15:27:06;;;;;;;0.35;0.35;;;;;;;;;;5031202;28;20511;-69
2021/12/04 15:29:33;;;;;;;0.65;0.65;;;;;;;;;;5039016;28;20029;-69
2021/12/04 15:32:01;;;;;;;0.47;0.47;;;;;;;;;;5038762;28;20184;-69
2021/12/04 15:34:38;;;;;;;0.63;0.50;;;;;;;;;;5031166;28;20632;-70
2021/12/04 15:37:05;;;;;;;1.27;0.77;;;;;;;;;;5037477;28;20033;-71
2021/12/04 15:39:35;;;;;;;0.10;0.10;;;;;;;;;;5031338;28;21439;-69
2021/12/04 15:44:45;;;;;;;0.20;0.20;;;;;;;;;;5030673;28;20060;-70
2021/12/04 15:55:25;;;;;;;0.43;0.43;;;;;;;;;;5032549;28;20037;-70
2021/12/04 15:57:56;;;;;;;1.15;0.70;;;;;;;;;;5038592;28;20033;-70
2021/12/04 16:00:24;;;;;;;0.22;0.22;;;;;;;;;;5031664;28;20426;-70
2021/12/04 16:02:55;;;;;;;0.57;0.57;;;;;;;;;;5030632;28;20539;-70
2021/12/04 16:05:22;;;;;;;0.10;0.10;;;;;;;;;;5029961;28;20043;-70
2021/12/04 16:07:49;;;;;;;0.20;0.20;;;;;;;;;;5030326;28;20083;-70
2021/12/04 16:10:18;;;;;;;0.20;0.20;;;;;;;;;;5030693;28;20053;-70
2021/12/04 16:12:45;;;;;;;0.38;0.38;;;;;;;;;;5038216;28;20028;-70
2021/12/04 16:15:14;;;;;;;1.00;1.00;;;;;;;;;;5042008;28;20020;-71
2021/12/04 16:17:40;;;;;;;0.20;0.20;;;;;;;;;;5030558;28;20137;-70
2021/12/04 16:20:11;;;;;;;0.28;0.28;;;;;;;;;;5033896;28;20117;-70
2021/12/04 16:22:39;;;;;;;0.13;0.13;;;;;;;;;;5033640;28;20136;-70
2021/12/04 16:25:10;;;;;;;0.38;0.38;;;;;;;;;;5030631;28;20033;-70
2021/12/04 16:27:47;;;;;;;0.82;0.75;;;;;;;;;;5038976;28;20029;-69
2021/12/04 16:35:38;;;;;;;0.43;0.43;;;;;;;;;;5044736;28;20030;-70
2021/12/04 16:38:06;;;;;;;2.28;0.93;;;;;;;;;;5032486;28;20044;-70
2021/12/04 16:40:34;;;;;;;0.32;0.32;;;;;;;;;;5032249;28;20075;-69
2021/12/04 16:43:07;;;;;;;0.20;0.20;;;;;;;;;;5043565;28;20064;-70
2021/12/04 16:45:34;;;;;;;0.85;0.40;;;;;;;;;;5045894;28;20103;-70
2021/12/04 16:48:02;;;;;;;0.52;0.52;;;;;;;;;;5031143;28;20034;-72
2021/12/04 16:50:42;;;;;;;1.27;0.88;;;;;;;;;;5030747;28;20033;-70
2021/12/04 16:58:24;;;;;;;0.20;0.20;;;;;;;;;;5033649;28;20509;-70
2021/12/04 17:00:51;;;;;;;0.30;0.30;;;;;;;;;;5040960;28;20124;-69
2021/12/04 17:03:18;;;;;;;0.32;0.32;;;;;;;;;;5028603;28;20022;-70
2021/12/04 17:05:45;;;;;;;1.08;0.73;;;;;;;;;;5028669;28;20036;-70
2021/12/04 17:08:11;;;;;;;0.10;0.10;;;;;;;;;;5030823;28;20029;-69
2021/12/04 17:10:37;;;;;;;1.38;1.27;;;;;;;;;;5039595;28;20108;-75
2021/12/04 17:13:04;;;;;;;0.60;0.60;;;;;;;;;;5028525;28;20033;-72
2021/12/04 17:15:31;;;;;;;1.40;0.47;;;;;;;;;;5035147;28;20049;-71
2021/12/04 17:17:58;;;;;;;0.43;0.43;;;;;;;;;;5028687;28;20450;-71
2021/12/04 17:20:26;;;;;;;0.60;0.60;;;;;;;;;;5030947;28;20030;-71
2021/12/04 17:22:54;;;;;;;1.25;0.98;;;;;;;;;;5034368;28;20141;-71
2021/12/04 17:25:20;;;;;;;0.20;0.20;;;;;;;;;;5037035;28;20026;-73
2021/12/04 17:27:47;;;;;;;0.28;0.28;;;;;;;;;;5029364;28;20029;-70
2021/12/04 17:30:13;;;;;;;1.40;1.33;;;;;;;;;;5036346;28;20468;-70
2021/12/04 17:32:40;;;;;;;0.20;0.20;;;;;;;;;;5040126;28;20043;-71
2021/12/04 17:35:06;;;;;;;0.38;0.38;;;;;;;;;;5051628;28;20171;-71
2021/12/04 17:37:32;;;;;;;0.30;0.30;;;;;;;;;;5039013;28;20036;-71
2021/12/04 17:39:58;;;;;;;0.60;0.60;;;;;;;;;;5043809;28;20036;-71
2021/12/04 17:42:25;;;;;;;0.40;0.40;;;;;;;;;;5045996;28;20136;-71